Time;durP1;ratioP1;P1;durP2;ratioP2;P2;SDS_P1;SDS_P2;PMS_P1;PMS_P2;Temp;Humidity;BMP_temperature;BMP_pressure;BME280_temperature;BME280_humidity;BME280_pressure;Samples;Min_cycle;Max_cycle;Signal;HPM_P1;HPM_P2
2023/09/14 00:01:21;;;;;;;;;;;;;;;29.54;66.38;100881.38;4914332;28;69153;-37
2023/09/14 00:03:52;;;;;;;;;;;;;;;29.62;69.35;100883.84;4913315;28;66958;-38
2023/09/14 00:06:22;;;;;;;;;;;;;;;29.67;70.84;100897.59;4903718;28;69723;-36
2023/09/14 00:08:51;;;;;;;;;;;;;;;29.71;72.68;100904.22;4922719;28;66827;-38
2023/09/14 00:11:21;;;;;;;;;;;;;;;29.74;72.42;100903.81;4913318;28;70302;-38
2023/09/14 00:13:50;;;;;;;;;;;;;;;29.81;74.43;100910.03;4925960;28;67048;-39
2023/09/14 00:16:19;;;;;;;;;;;;;;;29.84;74.45;100909.63;4915958;28;70486;-37
2023/09/14 00:18:49;;;;;;;;;;;;;;;29.87;74.02;100918.34;4925994;28;66130;-37
2023/09/14 00:21:19;;;;;;;;;;;;;;;29.90;74.24;100917.91;4913278;28;70401;-38
2023/09/14 00:23:48;;;;;;;;;;;;;;;29.93;74.27;100928.31;4923649;28;66237;-38
2023/09/14 00:26:17;;;;;;;;;;;;;;;29.94;75.09;100919.13;4921083;28;70661;-38
2023/09/14 00:28:48;;;;;;;;;;;;;;;29.99;75.43;100933.69;4918484;28;66491;-38
2023/09/14 00:31:18;;;;;;;;;;;;;;;29.99;74.31;100930.16;4917560;28;70079;-38
2023/09/14 00:33:47;;;;;;;;;;;;;;;29.99;74.86;100932.84;4922865;28;67405;-38
2023/09/14 00:36:20;;;;;;;;;;;;;;;30.01;74.63;100938.91;4922883;28;69507;-37
2023/09/14 00:38:49;;;;;;;;;;;;;;;30.04;75.10;100949.28;4925232;28;66888;-38
2023/09/14 00:41:18;;;;;;;;;;;;;;;30.05;75.15;100950.94;4903324;28;70667;-39
2023/09/14 00:43:47;;;;;;;;;;;;;;;30.06;75.22;100949.88;4912569;28;66775;-38
2023/09/14 00:46:17;;;;;;;;;;;;;;;30.11;75.17;100965.47;4929287;28;70304;-37
2023/09/14 00:48:47;;;;;;;;;;;;;;;30.11;75.06;100957.38;4918454;28;67021;-37
2023/09/14 00:51:17;;;;;;;;;;;;;;;30.13;74.60;100961.53;4923610;28;70128;-36
2023/09/14 00:53:49;;;;;;;;;;;;;;;30.13;73.88;100964.22;4926360;28;66436;-37
2023/09/14 00:56:18;;;;;;;;;;;;;;;30.16;73.93;100971.91;4924785;28;70351;-37
2023/09/14 00:58:48;;;;;;;;;;;;;;;30.17;73.61;100970.91;4926224;28;66067;-36
2023/09/14 01:01:17;;;;;;;;;;;;;;;30.17;73.00;100967.34;4905300;28;70433;-36
2023/09/14 01:03:46;;;;;;;;;;;;;;;30.16;73.17;100971.91;4932955;28;66656;-38
2023/09/14 01:06:16;;;;;;;;;;;;;;;30.16;72.53;100977.31;4931800;28;69696;-37
2023/09/14 01:08:45;;;;;;;;;;;;;;;30.18;72.02;100980.66;4920684;28;65738;-36
2023/09/14 01:11:15;;;;;;;;;;;;;;;30.19;71.77;100982.31;4922150;28;70866;-37
2023/09/14 01:13:47;;;;;;;;;;;;;;;30.19;71.54;100995.00;4911845;28;66405;-37
2023/09/14 01:16:23;;;;;;;;;;;;;;;30.19;71.42;101000.44;4922041;28;70157;-39
2023/09/14 01:19:07;;;;;;;;;;;;;;;30.21;71.35;100993.75;4922851;28;66374;-36
2023/09/14 01:21:42;;;;;;;;;;;;;;;30.22;71.00;100998.16;4941171;28;70001;-36
2023/09/14 01:24:31;;;;;;;;;;;;;;;30.23;70.95;100994.41;4923582;28;66849;-36
2023/09/14 01:27:01;;;;;;;;;;;;;;;30.25;70.79;101002.31;4898580;28;70519;-38
2023/09/14 01:29:31;;;;;;;;;;;;;;;30.24;70.83;101012.31;4909653;28;66707;-36
2023/09/14 01:32:00;;;;;;;;;;;;;;;30.27;70.32;101002.94;4916388;28;70540;-37
2023/09/14 01:34:29;;;;;;;;;;;;;;;30.27;70.67;101011.88;4905598;28;66766;-36
2023/09/14 01:37:00;;;;;;;;;;;;;;;30.30;71.99;101009.78;4908702;28;69604;-39
2023/09/14 01:39:30;;;;;;;;;;;;;;;30.33;70.67;101009.38;4920104;28;65753;-37
2023/09/14 01:42:00;;;;;;;;;;;;;;;30.36;69.67;101003.53;4914857;28;70697;-35
2023/09/14 01:44:30;;;;;;;;;;;;;;;30.41;68.89;101017.25;4924044;28;66120;-37
2023/09/14 01:47:01;;;;;;;;;;;;;;;30.43;68.34;101012.47;4924883;28;70025;-37
2023/09/14 01:49:31;;;;;;;;;;;;;;;30.47;68.55;101008.25;4924024;28;66628;-37
2023/09/14 01:52:00;;;;;;;;;;;;;;;30.49;67.83;101008.88;4942047;28;71163;-37
2023/09/14 01:54:29;;;;;;;;;;;;;;;30.53;67.90;101004.69;4924003;28;66619;-36
2023/09/14 01:56:59;;;;;;;;;;;;;;;30.56;67.77;101008.84;4941978;28;69056;-36
2023/09/14 01:59:28;;;;;;;;;;;;;;;30.58;67.89;101014.88;4924144;28;67022;-36
2023/09/14 02:01:58;;;;;;;;;;;;;;;30.60;67.64;101005.50;4925785;28;69227;-35
2023/09/14 02:04:27;;;;;;;;;;;;;;;30.62;67.29;101002.56;4925599;28;66727;-36
2023/09/14 02:06:56;;;;;;;;;;;;;;;30.66;67.23;101003.81;4896289;28;69838;-36
2023/09/14 02:09:26;;;;;;;;;;;;;;;30.67;67.36;101003.59;4927871;28;66814;-36
2023/09/14 02:11:55;;;;;;;;;;;;;;;30.69;67.27;101009.63;4932560;28;70283;-38
2023/09/14 02:14:24;;;;;;;;;;;;;;;30.70;67.14;100999.59;4934680;28;67020;-37
2023/09/14 02:16:54;;;;;;;;;;;;;;;30.72;67.06;101001.06;4907307;28;69754;-36
2023/09/14 02:19:24;;;;;;;;;;;;;;;30.77;66.93;100986.06;4934851;28;64932;-36
2023/09/14 02:21:53;;;;;;;;;;;;;;;30.79;67.10;100982.09;4931957;28;71120;-37
2023/09/14 02:24:22;;;;;;;;;;;;;;;30.81;67.04;100984.59;4910772;28;66722;-36
2023/09/14 02:26:54;;;;;;;;;;;;;;;30.83;66.74;100987.91;4928808;28;70215;-37
2023/09/14 02:29:24;;;;;;;;;;;;;;;30.84;66.57;100985.00;4934932;28;67135;-37
2023/09/14 02:31:54;;;;;;;;;;;;;;;30.87;67.08;100989.97;4933588;28;70789;-36
2023/09/14 02:34:23;;;;;;;;;;;;;;;30.90;67.14;100994.13;4930836;28;66168;-38
2023/09/14 02:36:54;;;;;;;;;;;;;;;30.93;67.01;100988.28;4928529;28;70610;-36
2023/09/14 02:39:24;;;;;;;;;;;;;;;30.96;67.05;100987.00;4934351;28;67255;-36
2023/09/14 02:41:54;;;;;;;;;;;;;;;30.98;66.78;100980.34;4923797;28;70420;-37
2023/09/14 02:44:23;;;;;;;;;;;;;;;31.00;67.03;100972.78;4918851;28;67120;-37
2023/09/14 02:46:52;;;;;;;;;;;;;;;31.03;66.54;100976.94;4939370;28;69667;-36
2023/09/14 02:49:22;;;;;;;;;;;;;;;31.05;66.73;100967.56;4935742;28;66902;-37
2023/09/14 02:51:51;;;;;;;;;;;;;;;31.07;66.93;100951.91;4928743;28;70936;-37
2023/09/14 02:54:21;;;;;;;;;;;;;;;31.10;66.58;100956.91;4916206;28;66726;-36
2023/09/14 02:56:50;;;;;;;;;;;;;;;31.13;66.55;100955.63;4925438;28;70136;-37
2023/09/14 02:59:20;;;;;;;;;;;;;;;31.15;66.42;100954.34;4894535;28;66904;-37
2023/09/14 03:01:49;;;;;;;;;;;;;;;31.19;66.30;100948.50;4923991;28;69861;-37
2023/09/14 03:04:19;;;;;;;;;;;;;;;31.20;66.53;100939.31;4929523;28;66782;-38
2023/09/14 03:06:48;;;;;;;;;;;;;;;31.24;66.26;100940.53;4920667;28;70377;-36
2023/09/14 03:09:18;;;;;;;;;;;;;;;31.26;66.19;100938.41;4923446;28;66795;-39
2023/09/14 03:11:47;;;;;;;;;;;;;;;31.28;66.31;100941.75;4918827;28;70085;-37
2023/09/14 03:14:17;;;;;;;;;;;;;;;31.29;66.41;100933.41;4898517;28;66675;-36
2023/09/14 03:16:46;;;;;;;;;;;;;;;31.32;66.15;100932.13;4912119;28;70708;-37
2023/09/14 03:19:15;;;;;;;;;;;;;;;31.34;66.06;100921.88;4913635;28;66368;-36
2023/09/14 03:21:45;;;;;;;;;;;;;;;31.36;65.98;100917.09;4918567;28;70301;-38
2023/09/14 03:24:14;;;;;;;;;;;;;;;31.37;66.03;100913.31;4909099;28;66849;-38
2023/09/14 03:26:44;;;;;;;;;;;;;;;31.39;66.05;100916.66;4920581;28;69487;-36
2023/09/14 03:29:13;;;;;;;;;;;;;;;31.41;65.99;100909.13;4913903;28;66910;-38
2023/09/14 03:31:43;;;;;;;;;;;;;;;31.42;65.95;100905.34;4917041;28;69285;-37
2023/09/14 03:34:12;;;;;;;;;;;;;;;31.44;65.97;100911.38;4914606;28;66170;-37
2023/09/14 03:36:42;;;;;;;;;;;;;;;31.44;65.73;100905.16;4897306;28;70371;-38
2023/09/14 03:39:12;;;;;;;;;;;;;;;31.47;65.58;100908.22;4912933;28;66966;-38
2023/09/14 03:41:42;;;;;;;;;;;;;;;31.48;65.58;100904.50;4916359;28;71692;-36
2023/09/14 03:44:12;;;;;;;;;;;;;;;31.49;65.58;100900.72;4912010;28;66784;-39
2023/09/14 03:46:41;;;;;;;;;;;;;;;31.50;65.63;100904.25;4917286;28;70826;-37
2023/09/14 03:49:11;;;;;;;;;;;;;;;31.52;65.52;100900.25;4911389;28;65885;-37
2023/09/14 03:51:40;;;;;;;;;;;;;;;31.54;65.55;100898.16;4894271;28;70628;-37
2023/09/14 03:54:10;;;;;;;;;;;;;;;31.55;65.54;100899.81;4923410;28;66305;-38
2023/09/14 03:56:39;;;;;;;;;;;;;;;31.57;65.73;100896.88;4897972;28;70236;-39
2023/09/14 03:59:08;;;;;;;;;;;;;;;31.58;65.38;100887.69;4896909;28;66927;-36
2023/09/14 04:01:38;;;;;;;;;;;;;;;31.59;65.44;100884.75;4918765;28;69458;-38
2023/09/14 04:04:07;;;;;;;;;;;;;;;31.61;65.43;100885.34;4908252;28;67075;-38
2023/09/14 04:06:36;;;;;;;;;;;;;;;31.61;65.21;100869.06;4914767;28;70765;-38
2023/09/14 04:09:06;;;;;;;;;;;;;;;31.64;65.31;100864.25;4903448;28;65976;-37
2023/09/14 04:11:35;;;;;;;;;;;;;;;31.65;65.28;100865.91;4900644;28;70460;-37
2023/09/14 04:14:05;;;;;;;;;;;;;;;31.67;65.23;100855.66;4907947;28;65866;-36
2023/09/14 04:16:34;;;;;;;;;;;;;;;31.68;65.03;100852.75;4906354;28;70555;-37
2023/09/14 04:19:04;;;;;;;;;;;;;;;31.70;65.17;100842.47;4917699;28;66114;-36
2023/09/14 04:21:34;;;;;;;;;;;;;;;31.72;65.10;100839.56;4922900;28;69310;-37
2023/09/14 04:24:03;;;;;;;;;;;;;;;31.74;65.12;100842.88;4901227;28;66863;-37
2023/09/14 04:26:33;;;;;;;;;;;;;;;31.74;64.90;100829.31;4920264;28;70316;-39
2023/09/14 04:29:03;;;;;;;;;;;;;;;31.77;64.91;100832.38;4890840;28;66846;-38
2023/09/14 04:31:32;;;;;;;;;;;;;;;31.79;64.74;100819.44;4917563;28;69787;-37
2023/09/14 04:34:01;;;;;;;;;;;;;;;31.81;64.85;100811.06;4916083;28;66248;-37
2023/09/14 04:36:32;;;;;;;;;;;;;;;31.84;64.75;100807.88;4917949;28;69927;-36
2023/09/14 04:39:01;;;;;;;;;;;;;;;31.85;64.31;100801.41;4915160;28;67012;-37
2023/09/14 04:41:31;;;;;;;;;;;;;;;31.88;64.52;100802.84;4917194;28;70754;-36
2023/09/14 04:44:00;;;;;;;;;;;;;;;31.89;64.44;100794.47;4897484;28;66510;-36
2023/09/14 04:46:30;;;;;;;;;;;;;;;31.90;64.44;100788.00;4921918;28;70158;-37
2023/09/14 04:49:00;;;;;;;;;;;;;;;31.91;64.31;100781.53;4912711;28;66191;-37
2023/09/14 04:51:29;;;;;;;;;;;;;;;31.94;64.43;100777.53;4909428;28;70291;-36
2023/09/14 04:53:59;;;;;;;;;;;;;;;31.94;64.21;100772.94;4901552;28;66590;-37
2023/09/14 04:56:28;;;;;;;;;;;;;;;31.96;64.11;100768.13;4915391;28;70572;-37
2023/09/14 04:58:58;;;;;;;;;;;;;;;31.97;64.23;100764.34;4913473;28;66810;-37
2023/09/14 05:01:27;;;;;;;;;;;;;;;31.99;63.79;100754.09;4907701;28;69866;-37
2023/09/14 05:03:56;;;;;;;;;;;;;;;32.01;64.01;100754.69;4922929;28;65954;-36
2023/09/14 05:06:26;;;;;;;;;;;;;;;32.03;64.07;100754.44;4905074;28;69616;-39
2023/09/14 05:08:57;;;;;;;;;;;;;;;32.04;63.86;100746.09;4934048;28;65706;-37
2023/09/14 05:11:27;;;;;;;;;;;;;;;32.07;63.67;100738.53;4909018;28;70484;-37
2023/09/14 05:13:56;;;;;;;;;;;;;;;32.08;63.52;100734.78;4921733;28;66571;-36
2023/09/14 05:16:26;;;;;;;;;;;;;;;32.10;63.53;100732.66;4890234;28;70576;-37
2023/09/14 05:18:55;;;;;;;;;;;;;;;32.12;63.34;100730.53;4923782;28;66419;-37
2023/09/14 05:21:25;;;;;;;;;;;;;;;32.13;63.26;100715.91;4930855;28;69776;-38
2023/09/14 05:23:54;;;;;;;;;;;;;;;32.16;63.25;100710.84;4914148;28;66494;-37
2023/09/14 05:26:25;;;;;;;;;;;;;;;32.18;63.00;100707.88;4922881;28;69186;-38
2023/09/14 05:28:54;;;;;;;;;;;;;;;32.20;63.01;100708.47;4942377;28;66657;-37
2023/09/14 05:31:24;;;;;;;;;;;;;;;32.20;63.14;100701.16;4925794;28;70473;-36
2023/09/14 05:33:53;;;;;;;;;;;;;;;32.23;62.89;100705.28;4926174;28;66204;-39
2023/09/14 05:36:23;;;;;;;;;;;;;;;32.26;62.87;100696.69;4925468;28;70358;-37
2023/09/14 05:38:53;;;;;;;;;;;;;;;32.26;62.91;100688.53;4926525;28;65695;-41
2023/09/14 05:41:22;;;;;;;;;;;;;;;32.27;62.61;100685.59;4925191;28;70633;-37
2023/09/14 05:43:52;;;;;;;;;;;;;;;32.30;62.67;100683.47;4907602;28;66631;-36
2023/09/14 05:46:21;;;;;;;;;;;;;;;32.31;62.46;100680.50;4917211;28;69784;-37
2023/09/14 05:48:51;;;;;;;;;;;;;;;32.33;62.41;100672.97;4913162;28;65784;-37
2023/09/14 05:51:20;;;;;;;;;;;;;;;32.34;62.15;100663.75;4916060;28;70179;-36
2023/09/14 05:53:50;;;;;;;;;;;;;;;32.34;62.40;100647.47;4912088;28;66795;-38
2023/09/14 05:56:19;;;;;;;;;;;;;;;32.35;62.32;100651.84;4919946;28;70593;-37
2023/09/14 05:58:49;;;;;;;;;;;;;;;32.38;62.26;100643.25;4913981;28;65990;-37
2023/09/14 06:01:19;;;;;;;;;;;;;;;32.40;62.05;100632.13;4911067;28;70693;-37
2023/09/14 06:03:49;;;;;;;;;;;;;;;32.41;62.09;100623.75;4920364;28;66877;-37
2023/09/14 06:06:19;;;;;;;;;;;;;;;32.42;62.14;100617.25;4919889;28;69893;-39
2023/09/14 06:08:48;;;;;;;;;;;;;;;32.44;61.90;100607.00;4918310;28;66614;-37
2023/09/14 06:11:17;;;;;;;;;;;;;;;32.45;62.42;100599.66;4912334;28;70663;-37
2023/09/14 06:13:47;;;;;;;;;;;;;;;32.36;61.96;100580.22;4921144;28;65513;-37
2023/09/14 06:16:18;;;;;;;;;;;;;;;32.49;61.81;100599.00;4917989;28;70746;-38
2023/09/14 06:18:48;;;;;;;;;;;;;;;32.52;61.73;100599.59;4899349;29;65717;-37
2023/09/14 06:21:18;;;;;;;;;;;;;;;32.54;61.69;100592.00;4915923;28;70339;-37
2023/09/14 06:23:47;;;;;;;;;;;;;;;32.55;61.87;100593.69;4911247;28;67272;-37
2023/09/14 06:26:17;;;;;;;;;;;;;;;32.59;61.67;100583.97;4921005;28;69296;-39
2023/09/14 06:28:46;;;;;;;;;;;;;;;32.60;61.63;100580.22;4917019;28;65339;-38
2023/09/14 06:31:16;;;;;;;;;;;;;;;32.63;61.37;100577.03;4905202;28;70245;-37
2023/09/14 06:33:46;;;;;;;;;;;;;;;32.65;61.53;100566.72;4919087;28;65380;-37
2023/09/14 06:36:18;;;;;;;;;;;;;;;32.68;61.39;100577.09;4904742;28;69809;-36
2023/09/14 06:38:48;;;;;;;;;;;;;;;32.70;61.36;100564.13;4909644;28;66532;-37
2023/09/14 06:41:17;;;;;;;;;;;;;;;32.72;61.27;100562.00;4919658;28;70302;-36
2023/09/14 06:43:47;;;;;;;;;;;;;;;32.76;61.29;100567.75;4911576;28;66472;-39
2023/09/14 06:46:17;;;;;;;;;;;;;;;32.77;61.02;100566.72;4906370;28;70756;-36
2023/09/14 06:48:47;;;;;;;;;;;;;;;32.78;61.01;100566.47;4907574;28;65632;-38
2023/09/14 06:51:16;;;;;;;;;;;;;;;32.80;61.10;100564.34;4906194;28;69737;-39
2023/09/14 06:53:46;;;;;;;;;;;;;;;32.82;61.12;100562.22;4903062;28;65296;-38
2023/09/14 06:56:15;;;;;;;;;;;;;;;32.84;60.85;100564.66;4915523;28;69752;-37
2023/09/14 06:58:45;;;;;;;;;;;;;;;32.86;60.95;100557.94;4931595;28;66269;-37
2023/09/14 07:01:14;;;;;;;;;;;;;;;32.89;60.92;100546.56;4913807;28;70126;-36
2023/09/14 07:03:44;;;;;;;;;;;;;;;32.93;60.90;100546.91;4920689;28;65484;-38
2023/09/14 07:06:15;;;;;;;;;;;;;;;32.97;61.21;100541.84;4912569;28;70036;-38
2023/09/14 07:08:44;;;;;;;;;;;;;;;33.00;60.82;100541.38;4917750;28;67240;-37
2023/09/14 07:11:14;;;;;;;;;;;;;;;33.05;60.93;100546.91;4896556;28;69167;-38
2023/09/14 07:13:44;;;;;;;;;;;;;;;33.07;60.54;100539.31;4919675;28;66627;-36
2023/09/14 07:16:14;;;;;;;;;;;;;;;33.11;60.38;100533.16;4923390;28;70085;-39
2023/09/14 07:18:43;;;;;;;;;;;;;;;33.13;60.56;100530.22;4885586;28;65988;-38
2023/09/14 07:21:13;;;;;;;;;;;;;;;33.17;60.33;100514.22;4922581;28;70000;-38
2023/09/14 07:23:44;;;;;;;;;;;;;;;33.19;60.28;100518.34;4919598;28;65827;-38
2023/09/14 07:26:14;;;;;;;;;;;;;;;33.23;60.23;100507.81;4889048;28;70285;-37
2023/09/14 07:28:43;;;;;;;;;;;;;;;33.26;59.87;100513.56;4905922;28;66601;-37
2023/09/14 07:31:13;;;;;;;;;;;;;;;33.30;60.34;100497.63;4934271;28;70866;-37
2023/09/14 07:33:46;;;;;;;;;;;;;;;33.33;60.03;100497.94;4903005;28;65578;-37
2023/09/14 07:36:16;;;;;;;;;;;;;;;33.37;59.60;100493.66;4918214;28;70290;-36
2023/09/14 07:38:45;;;;;;;;;;;;;;;33.41;59.77;100483.13;4914299;28;66009;-38
2023/09/14 07:41:16;;;;;;;;;;;;;;;33.45;60.11;100483.44;4918979;28;70456;-37
2023/09/14 07:43:46;;;;;;;;;;;;;;;33.49;59.68;100490.88;4910516;28;66834;-36
2023/09/14 07:46:16;;;;;;;;;;;;;;;33.54;59.68;100509.19;4919688;28;70157;-38
2023/09/14 07:48:46;;;;;;;;;;;;;;;33.57;59.59;100495.94;4902738;28;66321;-37
2023/09/14 07:51:16;;;;;;;;;;;;;;;33.61;59.75;100488.09;4923180;28;69931;-37
2023/09/14 07:53:46;;;;;;;;;;;;;;;33.63;59.55;100485.94;4922402;28;65502;-37
2023/09/14 07:56:15;;;;;;;;;;;;;;;33.66;59.12;100496.34;4916792;28;69901;-37
2023/09/14 07:58:45;;;;;;;;;;;;;;;33.68;59.34;100496.88;4914555;28;65537;-39
2023/09/14 08:01:15;;;;;;;;;;;;;;;33.70;58.92;100497.47;4914351;28;70708;-37
2023/09/14 08:03:44;;;;;;;;;;;;;;;33.70;59.48;100489.31;4917855;28;65586;-36
2023/09/14 08:06:18;;;;;;;;;;;;;;;33.73;59.15;100501.59;4909904;28;70619;-36
2023/09/14 08:08:53;;;;;;;;;;;;;;;33.75;58.81;100496.72;4922601;28;66585;-38
2023/09/14 08:11:23;;;;;;;;;;;;;;;33.76;58.94;100499.19;4897053;28;70025;-37
2023/09/14 08:13:52;;;;;;;;;;;;;;;33.76;58.54;100511.97;4910378;28;66967;-37
2023/09/14 08:16:23;;;;;;;;;;;;;;;33.78;58.37;100546.00;4892972;28;69206;-37
2023/09/14 08:18:53;;;;;;;;;;;;;;;33.79;58.71;100538.66;4919678;28;66883;-38
2023/09/14 08:21:22;;;;;;;;;;;;;;;33.80;58.36;100538.44;4910319;28;70314;-37
2023/09/14 08:23:53;;;;;;;;;;;;;;;33.79;58.89;100544.13;4918595;28;66533;-39
2023/09/14 08:26:22;;;;;;;;;;;;;;;33.78;58.83;100548.75;4904970;28;69346;-37
2023/09/14 08:28:52;;;;;;;;;;;;;;;33.74;59.07;100544.88;4909372;28;66834;-37
2023/09/14 08:31:22;;;;;;;;;;;;;;;33.76;59.08;100518.22;4913305;28;69574;-37
2023/09/14 08:33:51;;;;;;;;;;;;;;;33.75;59.06;100516.59;4915647;28;66554;-38
2023/09/14 08:36:21;;;;;;;;;;;;;;;33.72;59.33;100514.38;4922119;28;69376;-39
2023/09/14 08:38:51;;;;;;;;;;;;;;;33.68;59.29;100529.53;4913905;28;67292;-38
2023/09/14 08:41:40;;;;;;;;;;;;;;;33.70;59.45;100518.41;4918375;28;69498;-37
2023/09/14 08:44:11;;;;;;;;;;;;;;;33.68;59.28;100505.03;4906867;28;66598;-39
2023/09/14 08:46:41;;;;;;;;;;;;;;;33.68;59.73;100496.06;4912360;28;69056;-36
2023/09/14 08:49:12;;;;;;;;;;;;;;;33.67;59.51;100506.13;4916879;28;66332;-37
2023/09/14 08:51:42;;;;;;;;;;;;;;;33.65;59.67;100530.03;4917154;28;70759;-37
2023/09/14 08:54:12;;;;;;;;;;;;;;;33.66;59.39;100541.75;4896837;28;65341;-38
2023/09/14 08:56:46;;;;;;;;;;;;;;;33.64;59.43;100531.09;4918068;28;70300;-37
2023/09/14 08:59:19;;;;;;;;;;;;;;;33.64;59.91;100520.22;4921358;28;64871;-37
2023/09/14 09:01:49;;;;;;;;;;;;;;;33.48;59.88;100510.97;4902039;28;70278;-38
2023/09/14 09:04:19;;;;;;;;;;;;;;;33.61;59.63;100545.19;4919829;28;65307;-37
2023/09/14 09:06:49;;;;;;;;;;;;;;;33.60;60.12;100543.56;4902349;28;70932;-38
2023/09/14 09:09:21;;;;;;;;;;;;;;;33.59;60.26;100560.94;4916442;28;65751;-39
2023/09/14 09:11:50;;;;;;;;;;;;;;;33.58;60.14;100575.63;4915667;28;68888;-37
2023/09/14 09:14:20;;;;;;;;;;;;;;;33.55;60.52;100595.97;4918821;28;67145;-37
2023/09/14 09:16:49;;;;;;;;;;;;;;;33.53;60.63;100603.53;4915985;28;69868;-38
2023/09/14 09:19:19;;;;;;;;;;;;;;;33.52;60.93;100615.50;4932544;28;67016;-36
2023/09/14 09:21:50;;;;;;;;;;;;;;;33.51;60.89;100613.78;4896102;28;68767;-37
2023/09/14 09:24:26;;;;;;;;;;;;;;;33.47;61.25;100622.72;4920396;28;66899;-36
2023/09/14 09:26:56;;;;;;;;;;;;;;;33.46;61.39;100645.50;4899942;28;69290;-37
2023/09/14 09:29:26;;;;;;;;;;;;;;;33.43;61.93;100659.59;4919297;28;66869;-37
2023/09/14 09:31:55;;;;;;;;;;;;;;;33.40;62.14;100660.91;4909235;28;69451;-37
2023/09/14 09:34:28;;;;;;;;;;;;;;;33.36;62.27;100652.41;4922283;28;66135;-38
2023/09/14 09:36:59;;;;;;;;;;;;;;;33.31;62.39;100657.75;4924304;28;70457;-36
2023/09/14 09:39:34;;;;;;;;;;;;;;;33.21;64.12;100665.72;4926741;28;66347;-39
2023/09/14 09:42:05;;;;;;;;;;;;;;;32.96;66.58;100671.44;4910860;28;69848;-38
2023/09/14 09:44:35;;;;;;;;;;;;;;;32.77;67.83;100672.66;4930469;28;66916;-37
2023/09/14 09:47:05;;;;;;;;;;;;;;;32.69;68.94;100679.25;4937500;28;69543;-37
2023/09/14 09:49:35;;;;;;;;;;;;;;;32.60;70.17;100677.97;4937216;28;65962;-36
2023/09/14 09:52:09;;;;;;;;;;;;;;;32.55;70.64;100688.72;4936007;28;70683;-37
2023/09/14 09:54:39;;;;;;;;;;;;;;;32.46;70.92;100705.34;4926847;28;66582;-37
2023/09/14 09:57:09;;;;;;;;;;;;;;;32.41;71.22;100694.34;4930109;28;70499;-37
2023/09/14 09:59:40;;;;;;;;;;;;;;;32.37;71.55;100701.28;4916222;28;66615;-38
2023/09/14 10:02:10;;;;;;;;;;;;;;;32.32;71.96;100698.47;4935205;28;71158;-40
2023/09/14 10:04:39;;;;;;;;;;;;;;;32.29;71.88;100693.53;4907485;28;65637;-39
2023/09/14 10:07:20;;;;;;;;;;;;;;;32.26;72.16;100693.97;4930987;28;69721;-40
2023/09/14 10:09:53;;;;;;;;;;;;;;;32.20;72.61;100700.34;4917942;28;65545;-37
2023/09/14 10:12:27;;;;;;;;;;;;;;;32.16;73.01;100699.16;4928893;28;69529;-37
2023/09/14 10:15:04;;;;;;;;;;;;;;;32.11;73.09;100697.13;4922310;28;65398;-38
2023/09/14 10:17:35;;;;;;;;;;;;;;;32.07;73.56;100695.09;4916668;28;70156;-38
2023/09/14 10:20:11;;;;;;;;;;;;;;;32.03;73.83;100695.56;4921390;28;66647;-39
2023/09/14 10:22:41;;;;;;;;;;;;;;;31.99;74.17;100694.41;4934356;28;70320;-38
2023/09/14 10:25:12;;;;;;;;;;;;;;;31.96;74.70;100702.19;4930155;28;66607;-40
2023/09/14 10:27:42;;;;;;;;;;;;;;;31.92;74.77;100715.38;4932338;28;70515;-40
2023/09/14 10:30:14;;;;;;;;;;;;;;;31.88;75.01;100727.72;4911637;28;65381;-40
2023/09/14 10:32:47;;;;;;;;;;;;;;;31.86;75.22;100727.13;4914256;28;70319;-40
2023/09/14 10:35:17;;;;;;;;;;;;;;;31.84;75.02;100729.22;4936770;28;65526;-38
2023/09/14 10:37:49;;;;;;;;;;;;;;;31.79;75.06;100731.81;4928719;28;70532;-39
2023/09/14 10:40:19;;;;;;;;;;;;;;;31.76;75.26;100732.25;4893506;28;65655;-37
2023/09/14 10:42:49;;;;;;;;;;;;;;;31.73;75.13;100732.72;4912775;28;68922;-37
2023/09/14 10:45:19;;;;;;;;;;;;;;;31.70;75.50;100735.91;4920048;28;66007;-38
2023/09/14 10:47:50;;;;;;;;;;;;;;;31.67;75.54;100733.66;4920140;28;70768;-39
2023/09/14 10:50:24;;;;;;;;;;;;;;;31.63;75.55;100732.47;4911270;28;66027;-37
2023/09/14 10:52:55;;;;;;;;;;;;;;;31.63;75.69;100743.31;4895188;28;70661;-37
2023/09/14 10:55:28;;;;;;;;;;;;;;;31.60;75.87;100741.88;4919896;28;66094;-38
2023/09/14 10:57:58;;;;;;;;;;;;;;;31.67;74.44;100750.75;4920002;28;70073;-38
2023/09/14 11:00:36;;;;;;;;;;;;;;;31.72;74.03;100744.63;4909867;28;65551;-39
2023/09/14 11:03:24;;;;;;;;;;;;;;;31.76;73.66;100748.53;4911743;28;70315;-36
2023/09/14 11:05:54;;;;;;;;;;;;;;;31.79;73.32;100748.91;4923519;28;65933;-39
2023/09/14 11:08:27;;;;;;;;;;;;;;;31.82;73.21;100755.78;4917768;28;69599;-37
2023/09/14 11:11:00;;;;;;;;;;;;;;;31.85;72.91;100757.19;4910718;28;66003;-36
2023/09/14 11:13:35;;;;;;;;;;;;;;;31.84;72.59;100761.78;4912495;28;70256;-38
2023/09/14 11:16:16;;;;;;;;;;;;;;;31.84;72.79;100761.78;4917724;28;66599;-38
2023/09/14 11:18:46;;;;;;;;;;;;;;;31.84;72.58;100767.19;4897025;28;69104;-37
2023/09/14 11:21:33;;;;;;;;;;;;;;;31.82;72.69;100761.19;4916317;28;43170;-38
2023/09/14 11:24:06;;;;;;;;;;;;;;;31.80;72.50;100766.84;4912883;28;69749;-37
2023/09/14 11:26:42;;;;;;;;;;;;;;;31.80;72.63;100774.16;4916855;28;66630;-38
2023/09/14 11:29:13;;;;;;;;;;;;;;;31.78;72.47;100773.53;4929357;28;70030;-37
2023/09/14 11:31:43;;;;;;;;;;;;;;;31.76;72.49;100775.66;4896858;28;65947;-38
2023/09/14 11:34:32;;;;;;;;;;;;;;;31.73;72.45;100782.38;4920285;28;70235;-37
2023/09/14 11:37:06;;;;;;;;;;;;;;;31.71;72.36;100784.50;4918174;28;65504;-37
2023/09/14 11:39:41;;;;;;;;;;;;;;;31.68;72.25;100787.66;4906089;28;70807;-38
2023/09/14 11:42:15;;;;;;;;;;;;;;;31.66;72.37;100797.06;4924434;28;65688;-38
2023/09/14 11:44:53;;;;;;;;;;;;;;;31.63;72.04;100808.38;4919758;28;69492;-39
2023/09/14 11:47:29;;;;;;;;;;;;;;;31.60;71.92;100815.91;4906867;28;65490;-38
2023/09/14 11:50:09;;;;;;;;;;;;;;;31.57;72.08;100821.78;4891054;28;70246;-40
2023/09/14 11:52:39;;;;;;;;;;;;;;;31.55;71.90;100821.19;4906794;28;65360;-39
2023/09/14 11:55:14;;;;;;;;;;;;;;;31.53;71.99;100825.16;4909731;28;69804;-40
2023/09/14 11:57:44;;;;;;;;;;;;;;;31.50;71.70;100818.31;4874195;28;65511;-39
2023/09/14 12:00:14;;;;;;;;;;;;;;;31.47;71.53;100821.47;4918068;28;69123;-39
2023/09/14 12:02:43;;;;;;;;;;;;;;;31.45;71.49;100817.34;4917791;28;66918;-39
2023/09/14 12:05:13;;;;;;;;;;;;;;;31.41;71.39;100822.38;4917134;28;69856;-40
2023/09/14 12:07:43;;;;;;;;;;;;;;;31.40;71.24;100826.16;4895370;28;65568;-40
2023/09/14 12:10:23;;;;;;;;;;;;;;;31.37;71.39;100830.16;4873782;28;70098;-38
2023/09/14 12:12:53;;;;;;;;;;;;;;;31.34;71.42;100833.28;4902703;28;66890;-39
2023/09/14 12:15:23;;;;;;;;;;;;;;;31.34;71.46;100837.84;4901633;28;70567;-39
2023/09/14 12:17:54;;;;;;;;;;;;;;;31.30;71.50;100842.91;4915407;28;66052;-40
2023/09/14 12:20:24;;;;;;;;;;;;;;;31.28;71.40;100849.59;4914863;28;68994;-39
2023/09/14 12:22:55;;;;;;;;;;;;;;;31.27;71.95;100853.38;4882309;28;63869;-41
2023/09/14 12:25:24;;;;;;;;;;;;;;;31.25;71.54;100845.44;4912064;28;70495;-39
2023/09/14 12:27:54;;;;;;;;;;;;;;;31.23;71.75;100841.31;4914080;28;66726;-38
2023/09/14 12:30:24;;;;;;;;;;;;;;;31.22;71.36;100834.22;4918765;28;69917;-39
2023/09/14 12:32:54;;;;;;;;;;;;;;;31.21;73.28;100844.25;4893166;28;66135;-40
2023/09/14 12:35:24;;;;;;;;;;;;;;;31.19;71.63;100845.53;4880792;28;69471;-40
2023/09/14 12:37:59;;;;;;;;;;;;;;;31.16;71.68;100846.78;4916560;28;66436;-41
2023/09/14 12:40:32;;;;;;;;;;;;;;;31.14;71.55;100844.28;4915978;28;70432;-37
2023/09/14 12:43:05;;;;;;;;;;;;;;;31.13;71.76;100842.66;4905610;28;65042;-40
2023/09/14 12:45:35;;;;;;;;;;;;;;;31.13;71.89;100853.50;4893539;28;69293;-40
2023/09/14 12:48:08;;;;;;;;;;;;;;;31.12;75.16;100845.56;4914298;28;66115;-39
2023/09/14 12:50:38;;;;;;;;;;;;;;;31.07;75.35;100846.25;4894878;28;69139;-37
2023/09/14 12:53:09;;;;;;;;;;;;;;;31.01;75.46;100843.59;4896666;28;65439;-38